createdAt,value
2023-05-01T15:10:48.165Z,19.01
2023-05-01T15:13:14.761Z,19.06
2023-05-01T15:15:41.583Z,19.19
2023-05-01T15:18:11.445Z,19.11
2023-05-01T15:20:39.230Z,18.93
2023-05-01T15:23:05.785Z,18.75
2023-05-01T15:25:32.358Z,18.70
2023-05-01T15:27:58.957Z,18.62
2023-05-01T15:30:25.701Z,18.41
2023-05-01T15:32:55.378Z,18.21
2023-05-01T15:35:23.634Z,18.09
2023-05-01T15:37:50.726Z,17.94
2023-05-01T15:40:17.465Z,17.75
2023-05-01T15:42:45.528Z,17.57
2023-05-01T15:45:12.122Z,17.52
2023-05-01T15:47:38.781Z,17.46
2023-05-01T15:50:09.552Z,17.33
2023-05-01T15:52:36.147Z,17.18
2023-05-01T15:55:02.795Z,17.14
2023-05-01T15:57:32.544Z,17.07
2023-05-01T15:59:59.248Z,17.05
2023-05-01T16:02:29.262Z,17.14
2023-05-01T16:04:55.938Z,17.10
2023-05-01T16:07:22.531Z,17.01
2023-05-01T16:09:49.327Z,16.90
2023-05-01T16:12:16.069Z,16.84
2023-05-01T16:14:42.689Z,16.87
2023-05-01T16:17:09.638Z,16.89
2023-05-01T16:19:39.118Z,16.91
2023-05-01T16:22:07.358Z,16.84
2023-05-01T16:24:36.150Z,16.83
2023-05-01T16:27:03.132Z,16.86
2023-05-01T16:29:33.410Z,16.90
2023-05-01T16:32:00.216Z,16.83
2023-05-01T16:34:27.599Z,16.73
2023-05-01T16:36:56.147Z,16.68
2023-05-01T16:39:23.222Z,16.69
2023-05-01T16:41:52.373Z,16.68
2023-05-01T16:44:21.265Z,16.61
2023-05-01T16:46:58.605Z,16.44
2023-05-01T16:49:29.894Z,16.24
2023-05-01T16:51:58.290Z,16.08
2023-05-01T16:54:35.293Z,15.91
2023-05-01T16:57:03.299Z,15.77
2023-05-01T16:59:30.634Z,15.67
2023-05-01T17:01:57.574Z,15.56
2023-05-01T17:04:25.224Z,15.47
2023-05-01T17:06:52.280Z,15.38
2023-05-01T17:09:19.163Z,15.28
2023-05-01T17:11:56.755Z,15.15
2023-05-01T17:14:23.913Z,15.02
2023-05-01T17:16:50.998Z,14.91
2023-05-01T17:19:17.737Z,14.79
2023-05-01T17:21:44.355Z,14.69
2023-05-01T17:24:12.964Z,14.60
2023-05-01T17:26:39.655Z,14.52
2023-05-01T17:29:06.217Z,14.44
2023-05-01T17:31:32.935Z,14.36
2023-05-01T17:33:59.813Z,14.28
2023-05-01T17:36:27.170Z,14.19
2023-05-01T17:38:54.649Z,14.10
2023-05-01T17:41:24.298Z,14.02
2023-05-01T17:43:50.919Z,13.93
2023-05-01T17:46:18.429Z,13.84
2023-05-01T17:48:45.136Z,13.73
2023-05-01T17:51:14.116Z,13.59
2023-05-01T17:53:41.690Z,13.45
2023-05-01T17:56:09.118Z,13.34
2023-05-01T17:58:35.833Z,13.23
2023-05-01T18:01:04.648Z,13.15
2023-05-01T18:03:32.954Z,13.07
2023-05-01T18:06:01.664Z,12.96
2023-05-01T18:08:28.402Z,12.83
2023-05-01T18:10:55.305Z,12.73
2023-05-01T18:13:27.854Z,12.61
2023-05-01T18:15:57.769Z,12.49
2023-05-01T18:18:24.714Z,12.40
2023-05-01T18:20:51.833Z,12.29
2023-05-01T18:23:18.885Z,12.19
2023-05-01T18:25:46.482Z,12.08
2023-05-01T18:28:13.557Z,11.98
2023-05-01T18:30:40.150Z,11.89
2023-05-01T18:33:06.913Z,11.81
2023-05-01T18:35:33.668Z,11.72
2023-05-01T18:38:00.298Z,11.61
2023-05-01T18:40:27.437Z,11.50
2023-05-01T18:42:54.166Z,11.40
2023-05-01T18:45:20.903Z,11.30
2023-05-01T18:47:48.148Z,11.21
2023-05-01T18:50:16.981Z,11.13
2023-05-01T18:52:43.921Z,11.03
2023-05-01T18:55:11.637Z,10.92
2023-05-01T18:57:38.277Z,10.81
2023-05-01T19:00:06.549Z,10.71
2023-05-01T19:02:33.403Z,10.62
2023-05-01T19:05:00.159Z,10.55
2023-05-01T19:07:26.898Z,10.47
2023-05-01T19:09:53.664Z,10.40
2023-05-01T19:12:20.292Z,10.35
2023-05-01T19:14:47.096Z,10.30
2023-05-01T19:17:13.826Z,10.24
2023-05-01T19:19:40.448Z,10.19
2023-05-01T19:22:07.461Z,10.14
2023-05-01T19:24:34.201Z,10.11
2023-05-01T19:27:03.585Z,10.09
2023-05-01T19:29:31.947Z,10.04
2023-05-01T19:32:00.425Z,10.00
2023-05-01T19:34:27.884Z,9.95
2023-05-01T19:36:57.102Z,9.91
2023-05-01T19:39:24.224Z,9.86
2023-05-01T19:41:51.005Z,9.82
2023-05-01T19:44:18.028Z,9.75
2023-05-01T19:46:45.047Z,9.69
2023-05-01T19:49:12.071Z,9.61
2023-05-01T19:51:38.739Z,9.55
2023-05-01T19:54:05.356Z,9.52
2023-05-01T19:56:31.971Z,9.50
2023-05-01T19:59:01.333Z,9.48
2023-05-01T20:01:31.345Z,9.48
2023-05-01T20:03:58.291Z,9.46
2023-05-01T20:06:24.978Z,9.43
2023-05-01T20:08:52.046Z,9.38
2023-05-01T20:11:18.794Z,9.35
2023-05-01T20:13:46.048Z,9.30
2023-05-01T20:16:13.037Z,9.24
2023-05-01T20:18:39.695Z,9.20
2023-05-01T20:21:07.723Z,9.14
2023-05-01T20:23:34.888Z,9.09
2023-05-01T20:26:01.844Z,9.08
2023-05-01T20:28:28.626Z,9.08
2023-05-01T20:30:56.306Z,9.08
2023-05-01T20:33:23.173Z,9.09
2023-05-01T20:35:51.469Z,9.10
2023-05-01T20:38:18.334Z,9.12
2023-05-01T20:40:45.366Z,9.14
2023-05-01T20:43:13.058Z,9.14
2023-05-01T20:45:39.697Z,9.13
2023-05-01T20:48:06.735Z,9.14
2023-05-01T20:50:34.908Z,9.14
2023-05-01T20:53:01.796Z,9.13
2023-05-01T20:55:30.051Z,9.11
2023-05-01T20:57:56.795Z,9.09
2023-05-01T21:00:23.575Z,9.07
2023-05-01T21:02:51.750Z,9.05
2023-05-01T21:05:18.655Z,9.04
2023-05-01T21:07:45.365Z,9.03
2023-05-01T21:10:14.317Z,9.03
2023-05-01T21:12:41.073Z,9.02
2023-05-01T21:15:09.347Z,8.98
2023-05-01T21:17:37.105Z,8.94
2023-05-01T21:20:08.551Z,8.89
2023-05-01T21:22:35.826Z,8.86
2023-05-01T21:25:02.650Z,8.83
2023-05-01T21:27:29.392Z,8.79
2023-05-01T21:29:59.263Z,8.77
2023-05-01T21:32:32.619Z,8.73
2023-05-01T21:35:00.522Z,8.65
2023-05-01T21:37:30.087Z,8.59
2023-05-01T21:40:01.361Z,8.54
2023-05-01T21:42:35.764Z,8.51
2023-05-01T21:45:07.647Z,8.45
2023-05-01T21:47:38.638Z,8.39
2023-05-01T21:50:07.188Z,8.31
2023-05-01T21:52:34.966Z,8.23
2023-05-01T21:55:03.790Z,8.19
2023-05-01T21:57:31.769Z,8.14
2023-05-01T22:00:01.642Z,8.10
2023-05-01T22:02:35.224Z,8.06
2023-05-01T22:05:01.981Z,8.01
2023-05-01T22:07:28.535Z,7.97
2023-05-01T22:09:59.074Z,7.90
2023-05-01T22:12:26.099Z,7.84
2023-05-01T22:14:53.130Z,7.79
2023-05-01T22:17:24.359Z,7.73
2023-05-01T22:19:51.789Z,7.68
2023-05-01T22:22:19.452Z,7.65
2023-05-01T22:24:46.505Z,7.63
2023-05-01T22:27:13.229Z,7.61
2023-05-01T22:29:39.807Z,7.62
2023-05-01T22:32:06.434Z,7.59
2023-05-01T22:34:33.391Z,7.57
2023-05-01T22:36:59.979Z,7.58
2023-05-01T22:39:26.516Z,7.60
2023-05-01T22:41:53.148Z,7.60
2023-05-01T22:44:22.334Z,7.61
2023-05-01T22:46:49.122Z,7.65
2023-05-01T22:49:15.704Z,7.69
2023-05-01T22:51:42.246Z,7.69
2023-05-01T22:54:08.932Z,7.70
2023-05-01T22:56:35.637Z,7.72
2023-05-01T22:59:02.284Z,7.74
2023-05-01T23:01:29.421Z,7.75
2023-05-01T23:03:56.645Z,7.73
2023-05-01T23:06:23.536Z,7.71
2023-05-01T23:08:56.179Z,7.68
2023-05-01T23:11:22.855Z,7.67
2023-05-01T23:13:50.083Z,7.63
2023-05-01T23:16:17.651Z,7.59
2023-05-01T23:18:45.594Z,7.55
2023-05-01T23:21:18.187Z,7.51
2023-05-01T23:23:46.586Z,7.46
2023-05-01T23:26:27.004Z,7.42
2023-05-01T23:28:53.893Z,7.40
2023-05-01T23:31:27.828Z,7.38
2023-05-01T23:33:55.457Z,7.33
2023-05-01T23:36:22.154Z,7.32
2023-05-01T23:38:48.853Z,7.33
2023-05-01T23:41:16.567Z,7.35
2023-05-01T23:43:46.586Z,7.36
2023-05-01T23:46:13.926Z,7.37
2023-05-01T23:48:41.547Z,7.36
2023-05-01T23:51:08.383Z,7.37
2023-05-01T23:53:35.008Z,7.38
2023-05-01T23:56:02.198Z,7.37
2023-05-01T23:58:28.806Z,7.35
